Time;durP1;ratioP1;P1;durP2;ratioP2;P2;SDS_P1;SDS_P2;PMS_P1;PMS_P2;Temp;Humidity;BMP_temperature;BMP_pressure;BME280_temperature;BME280_humidity;BME280_pressure;Samples;Min_cycle;Max_cycle;Signal;HPM_P1;HPM_P2
2022/03/19 00:04:39;;;;;;;12.75;10.82;;;12.50;71.60;;;;;;10924780;32;20027;-71
2022/03/19 00:10:41;;;;;;;12.68;9.45;;;12.40;71.50;;;;;;10942260;32;20026;-71
2022/03/19 00:16:42;;;;;;;16.08;10.55;;;12.40;71.50;;;;;;10942571;32;20053;-71
2022/03/19 00:22:45;;;;;;;11.25;8.15;;;12.20;71.90;;;;;;10945666;32;20049;-71
2022/03/19 00:28:47;;;;;;;14.27;10.02;;;12.10;72.10;;;;;;10949713;32;20334;-71
2022/03/19 00:34:50;;;;;;;12.50;9.57;;;11.90;72.70;;;;;;10949372;32;20019;-71
2022/03/19 00:40:52;;;;;;;10.77;8.15;;;11.90;72.50;;;;;;10948588;32;20399;-71
2022/03/19 00:46:54;;;;;;;11.75;9.23;;;11.90;72.40;;;;;;10945519;32;20058;-71
2022/03/19 00:52:56;;;;;;;15.40;11.60;;;11.90;72.50;;;;;;10947658;32;20034;-71
2022/03/19 00:58:58;;;;;;;11.90;7.28;;;11.80;72.60;;;;;;10946103;32;20057;-71
2022/03/19 01:05:00;;;;;;;16.23;10.23;;;11.80;72.80;;;;;;10948451;32;20027;-71
2022/03/19 01:11:03;;;;;;;11.65;7.87;;;11.70;72.90;;;;;;10948086;32;20023;-71
2022/03/19 01:17:06;;;;;;;12.65;7.75;;;11.70;72.90;;;;;;10934185;32;20035;-71
2022/03/19 01:23:08;;;;;;;10.80;6.37;;;11.70;72.80;;;;;;10945695;32;20065;-71
2022/03/19 01:29:10;;;;;;;13.68;9.48;;;11.50;73.10;;;;;;10947451;32;20027;-71
2022/03/19 01:35:13;;;;;;;13.65;9.80;;;11.60;73.20;;;;;;10947361;32;20023;-71
2022/03/19 01:41:15;;;;;;;13.95;10.00;;;11.70;72.90;;;;;;10947021;32;20054;-71
2022/03/19 01:47:19;;;;;;;11.73;8.98;;;11.80;71.90;;;;;;10946715;32;20061;-71
2022/03/19 01:53:21;;;;;;;12.00;8.70;;;11.80;71.30;;;;;;10946702;32;20061;-71
2022/03/19 01:59:25;;;;;;;11.32;7.82;;;11.70;71.30;;;;;;10942272;32;20050;-71
2022/03/19 02:05:29;;;;;;;9.43;6.28;;;11.60;71.40;;;;;;10946293;32;20018;-71
2022/03/19 02:11:34;;;;;;;11.98;8.40;;;11.40;71.90;;;;;;10942165;32;20073;-71
2022/03/19 02:17:37;;;;;;;10.85;7.82;;;11.20;72.50;;;;;;10945726;32;20433;-71
2022/03/19 02:30:01;;;;;;;15.85;9.75;;;11.10;72.80;;;;;;10927589;32;20308;-71
2022/03/19 02:36:03;;;;;;;12.60;7.87;;;11.10;72.80;;;;;;10941021;32;20023;-71
2022/03/19 02:42:07;;;;;;;10.90;7.47;;;11.10;72.90;;;;;;10944440;32;20053;-72
2022/03/19 02:48:11;;;;;;;11.95;8.82;;;11.00;73.10;;;;;;10942306;32;20342;-71
2022/03/19 02:54:16;;;;;;;9.30;6.57;;;10.80;73.20;;;;;;10944396;32;20049;-71
2022/03/19 03:00:18;;;;;;;10.98;7.50;;;10.90;73.30;;;;;;10944316;32;20023;-71
2022/03/19 03:06:20;;;;;;;15.13;9.45;;;10.80;73.30;;;;;;10944817;32;20047;-71
2022/03/19 03:12:23;;;;;;;11.75;8.75;;;10.80;73.40;;;;;;10943936;32;20031;-71
2022/03/19 03:18:25;;;;;;;11.43;8.55;;;10.80;73.50;;;;;;10943830;32;20424;-71
2022/03/19 03:24:29;;;;;;;11.05;7.40;;;10.80;73.20;;;;;;10943413;32;20027;-71
2022/03/19 03:30:31;;;;;;;9.82;6.68;;;10.60;73.50;;;;;;10943366;32;20038;-71
2022/03/19 03:36:33;;;;;;;12.23;7.25;;;10.60;73.70;;;;;;10943174;32;20020;-71
2022/03/19 03:42:38;;;;;;;12.30;8.43;;;10.60;73.50;;;;;;10943309;32;20022;-71
2022/03/19 03:48:40;;;;;;;12.90;9.30;;;10.60;73.60;;;;;;10941938;32;20053;-71
2022/03/19 03:54:42;;;;;;;11.38;7.00;;;10.70;73.50;;;;;;10941905;32;20324;-71
2022/03/19 04:00:45;;;;;;;12.60;7.80;;;10.40;73.70;;;;;;10942522;32;20043;-71
2022/03/19 04:06:47;;;;;;;14.23;9.40;;;10.30;73.80;;;;;;10942463;32;20366;-71
2022/03/19 04:12:49;;;;;;;11.25;8.52;;;10.30;73.80;;;;;;10942357;32;20016;-71
2022/03/19 04:18:51;;;;;;;12.75;9.32;;;10.40;74.40;;;;;;10942368;32;20301;-71
2022/03/19 04:24:53;;;;;;;10.88;8.68;;;10.30;74.10;;;;;;10937946;32;20046;-71
2022/03/19 04:30:55;;;;;;;13.38;8.25;;;10.20;74.20;;;;;;10942017;32;20387;-71
2022/03/19 04:36:57;;;;;;;12.77;9.93;;;10.20;74.10;;;;;;10928538;32;20101;-71
2022/03/19 04:43:00;;;;;;;12.10;8.68;;;9.80;74.40;;;;;;10938373;32;20425;-71
2022/03/19 04:49:02;;;;;;;13.10;9.10;;;9.80;74.20;;;;;;10941773;32;20027;-71
2022/03/19 04:55:07;;;;;;;15.80;10.55;;;9.70;74.10;;;;;;10937638;32;20061;-71
2022/03/19 05:01:09;;;;;;;13.95;9.27;;;9.70;73.90;;;;;;10941456;32;20027;-71
2022/03/19 05:07:12;;;;;;;13.18;8.68;;;9.70;73.60;;;;;;10946096;32;20061;-71
2022/03/19 05:13:15;;;;;;;13.70;10.68;;;9.30;73.80;;;;;;10948418;32;20105;-71
2022/03/19 05:19:17;;;;;;;12.10;8.90;;;9.20;74.60;;;;;;10948158;32;20022;-71
2022/03/19 05:25:19;;;;;;;13.20;9.05;;;9.20;74.20;;;;;;10947986;32;20038;-71
2022/03/19 05:31:22;;;;;;;13.35;8.05;;;9.30;73.90;;;;;;10947500;32;20069;-71
2022/03/19 05:37:24;;;;;;;12.93;9.13;;;9.40;74.00;;;;;;10947808;32;20062;-71
2022/03/19 05:43:26;;;;;;;17.23;12.70;;;9.30;73.70;;;;;;10947467;32;20304;-71
2022/03/19 05:49:29;;;;;;;14.07;8.27;;;9.20;73.70;;;;;;10947057;32;20023;-71
2022/03/19 05:55:31;;;;;;;14.15;9.43;;;9.20;73.50;;;;;;10944715;32;20065;-71
2022/03/19 06:01:35;;;;;;;11.55;7.87;;;9.30;73.40;;;;;;10946885;32;20403;-71
2022/03/19 06:07:37;;;;;;;11.65;8.18;;;9.30;73.40;;;;;;10945403;32;20034;-71
2022/03/19 06:13:40;;;;;;;15.95;11.45;;;9.30;73.40;;;;;;10945462;32;20019;-71
2022/03/19 06:19:42;;;;;;;17.75;11.12;;;9.40;73.90;;;;;;10945819;32;20027;-71
2022/03/19 06:25:44;;;;;;;20.20;14.30;;;9.50;74.80;;;;;;10945893;32;20055;-71
2022/03/19 06:32:23;;;;;;;19.50;13.07;;;9.70;74.70;;;;;;10931681;32;20076;-71
2022/03/19 06:38:26;;;;;;;15.77;11.98;;;9.80;74.20;;;;;;10944783;32;20046;-71
2022/03/19 06:44:33;;;;;;;16.30;10.85;;;9.80;74.70;;;;;;10944694;32;20023;-72
2022/03/19 06:50:35;;;;;;;15.45;11.27;;;9.80;75.20;;;;;;10930709;32;20054;-71
2022/03/19 06:56:37;;;;;;;18.50;12.73;;;9.90;75.10;;;;;;10944174;32;20406;-71
2022/03/19 07:03:19;;;;;;;17.35;12.10;;;10.00;74.50;;;;;;10943355;32;20335;-71
2022/03/19 07:09:21;;;;;;;23.58;12.48;;;10.10;74.60;;;;;;10943167;32;20403;-71
2022/03/19 07:15:32;;;;;;;14.30;11.05;;;10.20;74.70;;;;;;10929597;32;20031;-72
2022/03/19 07:21:35;;;;;;;20.33;10.85;;;10.20;74.40;;;;;;10945068;27;20035;-71
2022/03/19 07:28:06;;;;;;;13.52;7.35;;;10.30;74.40;;;;;;10942201;32;20026;-71
2022/03/19 07:34:08;;;;;;;17.05;10.25;;;10.40;74.50;;;;;;10941967;32;20054;-71
2022/03/19 07:40:14;;;;;;;18.10;11.38;;;10.50;74.00;;;;;;10941955;32;20046;-72
2022/03/19 07:46:16;;;;;;;22.98;16.37;;;10.50;74.50;;;;;;10941717;32;20015;-71
2022/03/19 07:52:18;;;;;;;19.98;14.52;;;10.60;74.20;;;;;;10941316;32;20050;-72
2022/03/19 07:58:33;;;;;;;13.35;9.20;;;10.50;72.70;;;;;;10941157;32;20049;-72
2022/03/19 08:04:35;;;;;;;17.30;12.35;;;10.50;73.20;;;;;;10940938;32;20059;-72
2022/03/19 08:10:38;;;;;;;16.33;11.73;;;10.60;73.50;;;;;;10938554;32;20027;-72
2022/03/19 08:16:43;;;;;;;12.75;9.20;;;10.60;70.50;;;;;;10941681;32;20050;-72
2022/03/19 08:22:45;;;;;;;19.48;12.93;;;10.70;72.60;;;;;;10927988;32;20073;-73
2022/03/19 08:28:48;;;;;;;18.92;15.35;;;10.80;71.80;;;;;;10937954;32;20437;-73
2022/03/19 08:34:51;;;;;;;25.65;13.68;;;10.80;70.70;;;;;;10941036;32;20019;-72
2022/03/19 08:40:57;;;;;;;15.68;10.98;;;10.80;69.60;;;;;;10946059;32;20058;-72
2022/03/19 08:47:12;;;;;;;17.83;13.02;;;10.90;69.90;;;;;;10947891;32;20019;-72
2022/03/19 08:53:15;;;;;;;20.55;15.75;;;10.90;69.30;;;;;;10948054;32;20344;-72
2022/03/19 08:59:20;;;;;;;21.95;14.57;;;11.00;69.20;;;;;;10947558;32;20096;-72
2022/03/19 09:05:23;;;;;;;18.17;14.40;;;11.10;69.20;;;;;;10947387;32;20387;-71
2022/03/19 09:11:33;;;;;;;17.83;13.05;;;11.20;66.90;;;;;;10947095;32;20076;-72
2022/03/19 09:17:35;;;;;;;20.88;16.37;;;11.20;67.80;;;;;;10933758;32;20023;-72
2022/03/19 09:23:37;;;;;;;14.65;11.38;;;11.30;66.50;;;;;;10946544;32;20014;-72
2022/03/19 09:29:42;;;;;;;19.92;13.30;;;11.40;66.60;;;;;;10946385;32;20054;-72
2022/03/19 09:35:45;;;;;;;17.67;11.60;;;11.50;67.10;;;;;;10946168;32;20028;-72
2022/03/19 09:41:47;;;;;;;17.58;12.35;;;11.60;66.30;;;;;;10946783;32;20027;-72
2022/03/19 09:47:51;;;;;;;19.83;14.82;;;11.70;67.10;;;;;;10937251;32;20039;-72
2022/03/19 09:53:54;;;;;;;19.40;15.32;;;11.70;65.40;;;;;;10908443;32;20023;-72
2022/03/19 09:59:57;;;;;;;28.60;13.48;;;11.80;64.10;;;;;;10908600;32;20344;-72
2022/03/19 10:12:23;;;;;;;17.77;11.82;;;12.10;63.20;;;;;;10907829;32;20022;-72
2022/03/19 10:18:43;;;;;;;19.45;13.50;;;12.30;61.50;;;;;;10890321;32;20051;-72
2022/03/19 10:24:44;;;;;;;21.42;15.20;;;12.40;62.80;;;;;;10907387;32;20019;-72
2022/03/19 10:30:47;;;;;;;18.70;15.23;;;12.60;62.00;;;;;;10907511;32;20053;-71
2022/03/19 10:37:01;;;;;;;17.65;10.93;;;12.70;60.30;;;;;;10907408;32;20027;-71
2022/03/19 10:43:06;;;;;;;14.25;9.88;;;12.80;59.50;;;;;;10907118;32;20019;-72
2022/03/19 10:49:13;;;;;;;20.40;15.32;;;12.90;59.50;;;;;;10906463;32;20097;-72
2022/03/19 10:55:17;;;;;;;13.43;10.70;;;13.10;59.20;;;;;;10906546;32;20019;-72
2022/03/19 11:01:19;;;;;;;17.73;11.95;;;13.30;59.40;;;;;;10892693;32;20038;-72
2022/03/19 11:07:24;;;;;;;29.50;15.60;;;13.50;59.00;;;;;;10905666;32;20023;-71
2022/03/19 11:13:30;;;;;;;22.52;13.77;;;13.70;57.80;;;;;;10905692;32;20043;-72
2022/03/19 11:19:33;;;;;;;14.55;10.50;;;13.80;56.40;;;;;;10891996;32;20042;-72
2022/03/19 11:25:45;;;;;;;18.20;13.25;;;13.90;55.10;;;;;;10905058;32;20411;-72
2022/03/19 11:31:58;;;;;;;13.85;9.15;;;14.20;53.80;;;;;;10904949;32;20035;-72
2022/03/19 11:38:13;;;;;;;19.65;12.73;;;14.50;53.70;;;;;;10905154;32;20019;-72
2022/03/19 11:44:27;;;;;;;28.90;11.43;;;14.70;52.70;;;;;;10904462;32;20542;-72
2022/03/19 11:50:31;;;;;;;21.33;13.55;;;14.90;52.50;;;;;;10915331;32;20015;-71
2022/03/19 11:56:39;;;;;;;16.42;10.80;;;15.10;52.50;;;;;;10923971;32;20035;-71
2022/03/19 12:03:02;;;;;;;18.87;12.03;;;15.20;51.00;;;;;;10941463;32;20023;-71
2022/03/19 12:09:05;;;;;;;15.02;12.50;;;15.30;49.20;;;;;;10942096;32;20018;-72
2022/03/19 12:15:32;;;;;;;13.55;10.43;;;15.60;48.90;;;;;;10946461;32;20019;-69
2022/03/19 12:21:42;;;;;;;16.30;12.32;;;15.60;48.70;;;;;;10945204;32;20425;-69
2022/03/19 12:27:57;;;;;;;15.32;12.85;;;15.50;50.30;;;;;;10935665;32;20035;-69
2022/03/19 12:34:00;;;;;;;15.85;12.32;;;15.50;49.20;;;;;;10948749;32;20346;-69
2022/03/19 12:40:03;;;;;;;17.30;9.93;;;15.50;49.20;;;;;;10948634;32;20031;-69
2022/03/19 12:46:06;;;;;;;13.40;9.90;;;15.60;47.90;;;;;;10948626;32;20055;-69
2022/03/19 12:52:11;;;;;;;11.27;9.73;;;15.60;47.80;;;;;;10934936;32;20027;-69
2022/03/19 12:58:13;;;;;;;15.18;11.43;;;15.50;48.60;;;;;;10948169;32;20019;-69
2022/03/19 13:04:48;;;;;;;15.43;10.75;;;15.60;49.80;;;;;;10943623;32;20062;-69
2022/03/19 13:10:52;;;;;;;16.20;11.27;;;15.70;48.20;;;;;;10947426;32;20030;-69
2022/03/19 13:16:55;;;;;;;13.02;8.55;;;15.70;46.70;;;;;;10947397;32;20035;-68
2022/03/19 13:23:04;;;;;;;11.95;7.82;;;15.90;46.60;;;;;;10947031;32;20026;-69
2022/03/19 13:29:07;;;;;;;;;;;16.00;47.00;;;;;;10947296;32;20070;-68
2022/03/19 13:35:10;;;;;;;15.10;8.43;;;16.00;46.60;;;;;;10946873;32;19929;-69
2022/03/19 13:41:19;;;;;;;13.75;8.95;;;16.00;46.10;;;;;;10946606;32;20019;-69
2022/03/19 13:47:50;;;;;;;17.90;12.25;;;16.10;45.50;;;;;;10946216;32;20031;-69
2022/03/19 13:53:53;;;;;;;11.50;9.20;;;16.10;46.60;;;;;;10946069;32;20023;-69
2022/03/19 14:00:12;;;;;;;10.48;8.43;;;16.10;45.10;;;;;;10946271;32;20015;-69
2022/03/19 14:06:15;;;;;;;14.60;9.90;;;16.10;45.50;;;;;;10932342;32;20027;-69
2022/03/19 14:12:32;;;;;;;12.15;9.93;;;16.10;46.40;;;;;;10941916;32;20035;-69
2022/03/19 14:18:35;;;;;;;16.42;9.27;;;16.10;45.70;;;;;;10945587;32;20053;-70
2022/03/19 14:24:38;;;;;;;9.13;6.87;;;16.00;45.40;;;;;;10945386;32;20109;-69
2022/03/19 14:30:41;;;;;;;10.82;6.50;;;16.00;44.40;;;;;;10944966;32;20031;-69
2022/03/19 14:36:43;;;;;;;11.57;7.70;;;16.00;43.70;;;;;;10930779;32;20019;-69
2022/03/19 14:42:45;;;;;;;11.25;7.97;;;16.20;43.80;;;;;;10939561;32;20080;-69
2022/03/19 14:48:48;;;;;;;11.18;7.35;;;16.50;43.30;;;;;;10944487;32;20049;-69
2022/03/19 14:54:50;;;;;;;10.88;7.68;;;16.60;41.70;;;;;;10944304;32;20036;-69
2022/03/19 15:00:52;;;;;;;10.70;7.82;;;16.80;42.40;;;;;;10944091;32;20028;-69
2022/03/19 15:06:55;;;;;;;11.88;8.35;;;17.00;42.80;;;;;;10943186;32;20046;-70
2022/03/19 15:12:58;;;;;;;9.85;7.00;;;17.00;42.10;;;;;;10939317;32;20031;-69
2022/03/19 15:19:00;;;;;;;8.73;7.00;;;17.30;41.60;;;;;;10843835;27;3271168;-69
2022/03/19 15:25:03;;;;;;;9.57;7.07;;;17.40;41.90;;;;;;10938785;32;20027;-69
2022/03/19 15:31:05;;;;;;;10.38;7.50;;;17.80;42.50;;;;;;10941160;32;20555;-69
2022/03/19 15:37:07;;;;;;;11.07;8.40;;;18.00;41.80;;;;;;10938505;32;20030;-69
2022/03/19 15:43:10;;;;;;;10.38;7.00;;;18.30;41.20;;;;;;10942563;32;20027;-69
2022/03/19 15:49:12;;;;;;;9.38;6.72;;;18.80;40.30;;;;;;10939124;32;20023;-69
2022/03/19 15:55:15;;;;;;;8.73;6.50;;;19.30;40.00;;;;;;10940947;32;20060;-69
2022/03/19 16:01:17;;;;;;;9.25;6.97;;;19.80;39.10;;;;;;10941977;32;20504;-69
2022/03/19 16:07:19;;;;;;;10.38;6.85;;;20.30;38.60;;;;;;10941554;32;20315;-69
2022/03/19 16:13:45;;;;;;;10.35;7.32;;;20.60;38.80;;;;;;10928378;32;20019;-69
2022/03/19 16:20:20;;;;;;;12.77;5.90;;;20.80;38.50;;;;;;10938746;32;20034;-69
2022/03/19 16:27:12;;;;;;;8.27;4.75;;;21.10;39.50;;;;;;10939461;32;20351;-69
2022/03/19 16:33:14;;;;;;;6.45;3.90;;;21.80;39.50;;;;;;10752838;33;20382;-69
2022/03/19 16:39:16;;;;;;;6.75;4.65;;;21.90;39.80;;;;;;10752328;33;20047;-69
2022/03/19 16:45:19;;;;;;;9.73;6.70;;;21.80;39.80;;;;;;10750500;33;20043;-69
2022/03/19 16:51:21;;;;;;;11.40;7.60;;;20.50;42.20;;;;;;10748237;33;20032;-69
2022/03/19 16:57:24;;;;;;;10.27;6.57;;;19.30;43.70;;;;;;10750843;32;20052;-69
2022/03/19 17:03:26;;;;;;;8.85;5.97;;;18.70;44.70;;;;;;10796531;32;20419;-69
2022/03/19 17:09:30;;;;;;;8.68;6.25;;;18.20;44.90;;;;;;10946754;32;20383;-70
2022/03/19 17:15:33;;;;;;;16.45;8.25;;;17.50;45.90;;;;;;10948742;32;20042;-71
2022/03/19 17:21:55;;;;;;;10.25;6.70;;;16.80;47.40;;;;;;10947907;32;20031;-71
2022/03/19 17:27:57;;;;;;;14.85;7.35;;;16.40;48.60;;;;;;10934081;32;20030;-71
2022/03/19 17:34:00;;;;;;;7.55;5.82;;;15.90;49.90;;;;;;10948837;32;20030;-71
2022/03/19 17:40:27;;;;;;;10.07;7.30;;;15.60;50.80;;;;;;10947495;32;20041;-71
2022/03/19 17:46:29;;;;;;;8.57;5.68;;;15.20;51.90;;;;;;10948110;32;20292;-71
2022/03/19 17:52:32;;;;;;;7.57;4.87;;;15.00;52.90;;;;;;10946988;32;20372;-71
2022/03/19 17:58:35;;;;;;;10.65;7.30;;;14.70;53.40;;;;;;10945442;32;20057;-71
2022/03/19 18:04:37;;;;;;;13.65;10.15;;;14.50;54.20;;;;;;10932980;32;20054;-71
2022/03/19 18:10:39;;;;;;;16.00;11.05;;;14.50;54.80;;;;;;10945360;32;20058;-71
2022/03/19 18:16:41;;;;;;;17.80;12.55;;;14.30;54.50;;;;;;10946287;32;20054;-71
2022/03/19 18:22:44;;;;;;;14.32;11.23;;;14.20;54.30;;;;;;10946115;32;20027;-71
2022/03/19 18:28:46;;;;;;;11.18;8.73;;;14.10;55.10;;;;;;10945797;32;20081;-71
2022/03/19 18:34:50;;;;;;;13.18;10.65;;;13.80;55.80;;;;;;10945572;32;20057;-71
2022/03/19 18:41:21;;;;;;;11.27;9.80;;;13.70;56.70;;;;;;10945413;32;20023;-72
2022/03/19 18:47:23;;;;;;;15.13;11.60;;;13.40;57.40;;;;;;10945039;32;20038;-72
2022/03/19 18:53:25;;;;;;;13.57;10.68;;;13.50;58.20;;;;;;10932149;32;20418;-71
2022/03/19 18:59:42;;;;;;;14.75;9.25;;;13.20;58.50;;;;;;10944515;32;20053;-71
2022/03/19 19:05:44;;;;;;;17.95;13.70;;;13.20;59.10;;;;;;10944498;32;20042;-71
2022/03/19 19:11:47;;;;;;;14.65;12.48;;;13.20;59.30;;;;;;10944133;32;20062;-71
2022/03/19 19:17:51;;;;;;;23.73;12.07;;;13.00;59.60;;;;;;10930456;32;20045;-71
2022/03/19 19:23:53;;;;;;;25.60;14.55;;;12.80;60.10;;;;;;10943550;32;20031;-71
2022/03/19 19:29:56;;;;;;;23.35;15.73;;;12.80;61.00;;;;;;10939280;32;20062;-71
2022/03/19 19:36:13;;;;;;;26.45;16.85;;;12.70;62.00;;;;;;10938779;32;20417;-71
2022/03/19 19:42:15;;;;;;;21.30;14.48;;;12.70;62.00;;;;;;10943126;32;20027;-71
2022/03/19 19:48:28;;;;;;;26.62;18.77;;;12.60;62.00;;;;;;10942971;32;20057;-71
2022/03/19 19:54:39;;;;;;;20.83;14.13;;;12.50;61.60;;;;;;10943029;32;20022;-71
2022/03/19 20:00:41;;;;;;;15.90;12.30;;;12.30;61.90;;;;;;10942891;32;20026;-71
2022/03/19 20:13:05;;;;;;;20.55;14.65;;;12.20;62.90;;;;;;10942675;32;20350;-71
2022/03/19 20:19:11;;;;;;;21.00;12.35;;;12.10;63.10;;;;;;10942616;32;20435;-72
2022/03/19 20:25:17;;;;;;;19.20;15.00;;;12.10;63.00;;;;;;10942511;32;20289;-71
2022/03/19 20:31:19;;;;;;;23.20;15.00;;;11.90;63.10;;;;;;10942174;32;20061;-71
2022/03/19 20:37:21;;;;;;;19.80;16.15;;;11.80;62.80;;;;;;10948645;32;20411;-71
2022/03/19 20:43:24;;;;;;;20.70;15.48;;;11.80;63.00;;;;;;10949792;32;20026;-71
2022/03/19 20:55:50;;;;;;;16.35;11.57;;;11.70;64.10;;;;;;10949573;32;20339;-72
2022/03/19 21:01:52;;;;;;;26.90;16.35;;;11.70;65.30;;;;;;10946764;32;20027;-71
2022/03/19 21:08:04;;;;;;;26.80;17.37;;;11.50;65.60;;;;;;10949076;32;20054;-71
2022/03/19 21:14:09;;;;;;;26.65;18.98;;;11.40;66.80;;;;;;10945875;32;20054;-73
2022/03/19 21:20:22;;;;;;;21.15;14.68;;;11.20;67.20;;;;;;10948403;32;20011;-72
2022/03/19 21:26:38;;;;;;;25.60;18.37;;;11.00;67.70;;;;;;10948335;32;20045;-71
2022/03/19 21:32:42;;;;;;;36.83;25.92;;;11.10;67.40;;;;;;10948060;32;20031;-71
2022/03/19 21:40:48;;;;;;;32.10;20.33;;;11.00;67.00;;;;;;10947697;32;20031;-71
2022/03/19 21:45:11;;;;;;;31.35;23.33;;;11.10;66.50;;;;;;10947334;32;20057;-71
2022/03/19 21:51:15;;;;;;;27.58;20.73;;;11.00;66.70;;;;;;10947051;32;20031;-71
2022/03/19 21:57:17;;;;;;;23.62;17.73;;;11.00;67.10;;;;;;10946861;32;20078;-71
2022/03/19 22:03:19;;;;;;;25.75;16.17;;;11.00;67.30;;;;;;10946925;32;20334;-71
2022/03/19 22:09:23;;;;;;;20.52;18.27;;;10.90;67.60;;;;;;10946635;32;20057;-71
2022/03/19 22:15:25;;;;;;;27.55;22.58;;;10.90;68.10;;;;;;10932870;32;20019;-71
2022/03/19 22:21:43;;;;;;;21.27;14.30;;;10.90;67.60;;;;;;10932662;32;20401;-71
2022/03/19 22:27:46;;;;;;;16.60;12.73;;;10.50;67.90;;;;;;10945953;32;20327;-71
2022/03/19 22:33:48;;;;;;;16.35;11.63;;;10.50;69.70;;;;;;10945534;32;20027;-71
2022/03/19 22:39:51;;;;;;;19.23;13.25;;;10.50;70.10;;;;;;10945401;32;20057;-72
2022/03/19 22:45:54;;;;;;;19.50;11.45;;;10.50;70.20;;;;;;10945161;32;20023;-72
2022/03/19 22:52:27;;;;;;;16.48;12.07;;;10.40;70.10;;;;;;10944936;32;20053;-71
2022/03/19 22:58:29;;;;;;;11.70;8.40;;;10.50;71.30;;;;;;10944209;32;20049;-71
2022/03/19 23:04:32;;;;;;;12.32;9.07;;;10.50;71.40;;;;;;10944100;32;20062;-71
2022/03/19 23:10:36;;;;;;;12.63;9.65;;;10.60;71.20;;;;;;10940160;32;20030;-71
2022/03/19 23:16:38;;;;;;;10.20;7.10;;;10.60;71.40;;;;;;10948669;27;20434;-71
2022/03/19 23:22:40;;;;;;;12.40;7.62;;;10.60;71.40;;;;;;10943647;32;20027;-71
2022/03/19 23:28:42;;;;;;;15.20;11.38;;;10.60;71.70;;;;;;10943450;32;20031;-71
2022/03/19 23:41:05;;;;;;;11.32;8.65;;;10.60;71.80;;;;;;10943196;32;20015;-71
2022/03/19 23:47:07;;;;;;;10.48;6.97;;;10.60;71.80;;;;;;10942852;32;20068;-71
2022/03/19 23:53:09;;;;;;;12.57;8.68;;;10.60;71.90;;;;;;10939081;32;20335;-71
2022/03/19 23:59:11;;;;;;;7.60;5.75;;;10.50;71.40;;;;;;10942597;32;20019;-71
